Time;durP1;ratioP1;P1;durP2;ratioP2;P2;SDS_P1;SDS_P2;PMS_P1;PMS_P2;Temp;Humidity;BMP_temperature;BMP_pressure;BME280_temperature;BME280_humidity;BME280_pressure;Samples;Min_cycle;Max_cycle;Signal;HPM_P1;HPM_P2
2023/07/18 00:01:35;;;;;;;4.90;3.43;;;;;;;;;;10318462;28;20077;-78
2023/07/18 00:06:38;;;;;;;5.18;3.00;;;;;;;;;;10310060;28;20304;-79
2023/07/18 00:11:38;;;;;;;5.72;3.10;;;;;;;;;;10346883;28;20589;-78
2023/07/18 00:16:39;;;;;;;6.33;3.83;;;;;;;;;;10336247;28;20110;-76
2023/07/18 00:21:40;;;;;;;4.20;3.53;;;;;;;;;;10339987;28;20403;-77
2023/07/18 00:26:41;;;;;;;4.68;3.28;;;;;;;;;;10338325;28;20385;-78
2023/07/18 00:31:41;;;;;;;5.23;3.30;;;;;;;;;;10346362;28;20120;-78
2023/07/18 00:36:42;;;;;;;4.05;3.40;;;;;;;;;;10342332;28;20077;-79
2023/07/18 00:41:42;;;;;;;5.07;3.25;;;;;;;;;;10343414;28;20042;-77
2023/07/18 00:46:43;;;;;;;5.43;3.20;;;;;;;;;;10338808;28;20044;-77
2023/07/18 00:51:43;;;;;;;5.15;3.47;;;;;;;;;;10345609;28;20293;-78
2023/07/18 00:56:44;;;;;;;5.43;3.72;;;;;;;;;;10332343;28;20128;-76
2023/07/18 01:01:46;;;;;;;4.55;3.17;;;;;;;;;;10333345;28;20026;-76
2023/07/18 01:06:48;;;;;;;4.70;2.80;;;;;;;;;;10331712;28;20076;-78
2023/07/18 01:11:49;;;;;;;6.18;3.67;;;;;;;;;;10331288;28;20292;-76
2023/07/18 01:16:49;;;;;;;4.33;2.90;;;;;;;;;;10335574;28;21257;-76
2023/07/18 01:21:49;;;;;;;3.50;3.00;;;;;;;;;;10339674;28;20309;-79
2023/07/18 01:26:52;;;;;;;4.95;3.10;;;;;;;;;;10341178;28;20680;-77
2023/07/18 01:31:52;;;;;;;4.05;2.80;;;;;;;;;;10316199;28;20450;-76
2023/07/18 01:36:54;;;;;;;6.50;3.20;;;;;;;;;;10338495;28;20053;-78
2023/07/18 01:41:55;;;;;;;4.65;2.80;;;;;;;;;;10333335;28;20156;-79
2023/07/18 01:46:55;;;;;;;6.55;3.65;;;;;;;;;;10320321;28;20116;-77
2023/07/18 01:51:55;;;;;;;6.50;3.57;;;;;;;;;;10341837;28;20125;-78
2023/07/18 01:56:57;;;;;;;4.18;3.50;;;;;;;;;;10335466;28;20627;-77
2023/07/18 02:01:57;;;;;;;5.67;3.50;;;;;;;;;;10329249;28;20047;-77
2023/07/18 02:06:58;;;;;;;5.45;3.20;;;;;;;;;;10338711;28;20303;-77
2023/07/18 02:11:58;;;;;;;4.57;3.20;;;;;;;;;;10347254;28;20128;-79
2023/07/18 02:16:59;;;;;;;3.70;2.90;;;;;;;;;;10325799;28;20100;-77
2023/07/18 02:21:59;;;;;;;4.85;3.15;;;;;;;;;;10332224;28;20288;-77
2023/07/18 02:27:00;;;;;;;5.63;3.20;;;;;;;;;;10329854;28;20037;-75
2023/07/18 02:32:00;;;;;;;4.10;2.92;;;;;;;;;;10335065;28;20041;-78
2023/07/18 02:37:01;;;;;;;6.10;3.53;;;;;;;;;;10328839;28;20493;-79
2023/07/18 02:42:02;;;;;;;6.40;3.80;;;;;;;;;;10352795;28;20038;-79
2023/07/18 02:47:03;;;;;;;6.05;3.75;;;;;;;;;;10343566;28;20121;-79
2023/07/18 02:52:04;;;;;;;5.13;3.55;;;;;;;;;;10346710;28;20037;-76
2023/07/18 02:57:04;;;;;;;4.15;3.60;;;;;;;;;;10327617;28;20050;-76
2023/07/18 03:02:05;;;;;;;4.68;3.33;;;;;;;;;;10350752;28;20041;-79
2023/07/18 03:07:05;;;;;;;5.97;3.60;;;;;;;;;;10330342;28;20883;-76
2023/07/18 03:12:07;;;;;;;7.23;4.37;;;;;;;;;;10323272;28;20030;-76
2023/07/18 03:17:08;;;;;;;5.68;4.00;;;;;;;;;;10345871;28;20410;-78
2023/07/18 03:22:09;;;;;;;5.15;3.63;;;;;;;;;;10330522;28;20049;-76
2023/07/18 03:27:09;;;;;;;6.63;3.97;;;;;;;;;;10338136;28;20398;-76
2023/07/18 03:32:11;;;;;;;6.68;4.50;;;;;;;;;;10337768;28;20442;-76
2023/07/18 03:37:12;;;;;;;7.20;4.68;;;;;;;;;;10346258;28;20052;-78
2023/07/18 03:42:12;;;;;;;5.33;4.40;;;;;;;;;;10344061;28;20047;-77
2023/07/18 03:47:12;;;;;;;7.07;3.73;;;;;;;;;;10330045;28;20034;-78
2023/07/18 03:52:13;;;;;;;6.15;3.92;;;;;;;;;;10345082;28;20277;-77
2023/07/18 03:57:13;;;;;;;6.40;4.23;;;;;;;;;;10345311;28;20045;-75
2023/07/18 04:02:14;;;;;;;4.93;4.15;;;;;;;;;;10337888;28;20037;-76
2023/07/18 04:07:14;;;;;;;6.70;4.28;;;;;;;;;;10336322;28;20324;-75
2023/07/18 04:12:16;;;;;;;5.15;3.83;;;;;;;;;;10341468;28;20033;-76
2023/07/18 04:17:17;;;;;;;6.20;4.40;;;;;;;;;;10344749;28;20210;-75
2023/07/18 04:22:17;;;;;;;6.70;4.37;;;;;;;;;;10340279;28;20042;-75
2023/07/18 04:27:17;;;;;;;7.75;4.20;;;;;;;;;;10344832;28;20116;-76
2023/07/18 04:32:18;;;;;;;4.83;3.87;;;;;;;;;;10332398;28;20068;-74
2023/07/18 04:37:18;;;;;;;6.07;4.10;;;;;;;;;;10345026;28;20056;-79
2023/07/18 04:42:19;;;;;;;6.20;4.40;;;;;;;;;;10337884;28;20509;-80
2023/07/18 04:47:20;;;;;;;7.13;4.47;;;;;;;;;;10340761;28;20044;-78
2023/07/18 04:52:22;;;;;;;5.70;4.20;;;;;;;;;;10346349;28;20041;-80
2023/07/18 04:57:24;;;;;;;6.85;4.10;;;;;;;;;;10328574;28;20454;-79
2023/07/18 05:02:24;;;;;;;7.10;4.60;;;;;;;;;;10339947;28;20445;-78
2023/07/18 05:07:25;;;;;;;7.05;4.07;;;;;;;;;;10331773;28;20069;-77
2023/07/18 05:12:25;;;;;;;7.23;4.40;;;;;;;;;;10333427;28;20049;-78
2023/07/18 05:17:25;;;;;;;8.07;5.10;;;;;;;;;;10345134;28;20490;-77
2023/07/18 05:22:26;;;;;;;6.43;4.33;;;;;;;;;;10327338;28;20068;-78
2023/07/18 05:27:26;;;;;;;7.27;4.30;;;;;;;;;;10341792;28;20035;-82
2023/07/18 05:32:26;;;;;;;9.80;4.67;;;;;;;;;;10350937;28;20117;-81
2023/07/18 05:37:28;;;;;;;7.63;3.95;;;;;;;;;;10341112;28;21097;-78
2023/07/18 05:42:29;;;;;;;8.52;4.25;;;;;;;;;;10335343;28;20538;-82
2023/07/18 05:47:29;;;;;;;5.78;3.92;;;;;;;;;;10309538;28;20034;-76
2023/07/18 05:52:30;;;;;;;5.05;3.33;;;;;;;;;;10341788;28;20045;-78
2023/07/18 05:57:30;;;;;;;4.93;3.20;;;;;;;;;;10331148;28;20115;-78
2023/07/18 06:02:31;;;;;;;7.15;3.83;;;;;;;;;;10339542;28;20040;-74
2023/07/18 06:07:32;;;;;;;5.20;3.40;;;;;;;;;;10330312;28;20403;-75
2023/07/18 06:12:32;;;;;;;5.47;3.30;;;;;;;;;;10332627;28;20042;-78
2023/07/18 06:17:35;;;;;;;5.93;3.00;;;;;;;;;;10335972;28;20135;-79
2023/07/18 06:22:35;;;;;;;5.95;3.50;;;;;;;;;;10335396;28;20056;-78
2023/07/18 06:27:37;;;;;;;5.83;2.87;;;;;;;;;;10333661;28;20030;-81
2023/07/18 06:32:39;;;;;;;6.30;3.05;;;;;;;;;;10334812;28;20038;-77
2023/07/18 06:37:40;;;;;;;9.80;6.47;;;;;;;;;;10335386;28;20407;-78
2023/07/18 06:42:41;;;;;;;4.90;3.55;;;;;;;;;;10336981;28;20045;-77
2023/07/18 06:47:41;;;;;;;5.25;2.95;;;;;;;;;;10342756;28;20049;-77
2023/07/18 06:52:41;;;;;;;3.63;2.53;;;;;;;;;;10317556;28;20030;-76
2023/07/18 06:57:42;;;;;;;3.10;2.37;;;;;;;;;;10333580;28;20321;-78
2023/07/18 07:02:42;;;;;;;4.50;3.20;;;;;;;;;;10338253;28;20045;-78
2023/07/18 07:07:43;;;;;;;5.20;2.95;;;;;;;;;;10315662;28;20035;-79
2023/07/18 07:12:43;;;;;;;4.03;2.60;;;;;;;;;;10340316;28;20723;-77
2023/07/18 07:17:44;;;;;;;4.77;2.93;;;;;;;;;;10337111;28;20037;-77
2023/07/18 07:22:47;;;;;;;4.97;2.97;;;;;;;;;;10329912;28;20050;-82
2023/07/18 07:27:47;;;;;;;7.65;3.20;;;;;;;;;;10332622;28;21175;-79
2023/07/18 07:32:51;;;;;;;5.33;3.67;;;;;;;;;;10335809;28;20030;-77
2023/07/18 07:37:51;;;;;;;3.72;2.75;;;;;;;;;;10349696;28;20388;-76
2023/07/18 07:42:52;;;;;;;4.75;2.28;;;;;;;;;;10335297;28;20037;-75
2023/07/18 07:47:52;;;;;;;4.87;2.50;;;;;;;;;;10336705;28;20029;-75
2023/07/18 07:52:53;;;;;;;5.73;2.50;;;;;;;;;;10335683;28;20046;-76
2023/07/18 07:57:54;;;;;;;3.63;2.75;;;;;;;;;;10340979;28;21495;-75
2023/07/18 08:02:54;;;;;;;4.17;2.47;;;;;;;;;;10319296;28;20050;-76
2023/07/18 08:07:55;;;;;;;59.20;40.33;;;;;;;;;;10333377;28;20326;-76
2023/07/18 08:12:55;;;;;;;4.82;3.15;;;;;;;;;;10337362;28;20422;-75
2023/07/18 08:17:57;;;;;;;4.27;2.50;;;;;;;;;;10341212;28;20053;-75
2023/07/18 08:22:57;;;;;;;3.30;2.42;;;;;;;;;;10329964;28;21190;-77
2023/07/18 08:27:57;;;;;;;5.20;2.60;;;;;;;;;;10342501;28;20041;-77
2023/07/18 08:32:58;;;;;;;4.07;2.78;;;;;;;;;;10336507;28;20038;-76
2023/07/18 08:37:58;;;;;;;3.33;2.20;;;;;;;;;;10342384;28;20050;-76
2023/07/18 08:42:58;;;;;;;5.67;2.73;;;;;;;;;;10332384;28;20741;-76
2023/07/18 08:47:59;;;;;;;4.63;2.45;;;;;;;;;;10337365;28;20034;-75
2023/07/18 08:52:59;;;;;;;4.33;2.60;;;;;;;;;;10335535;28;20041;-76
2023/07/18 08:58:00;;;;;;;3.92;2.33;;;;;;;;;;10333594;28;20157;-75
2023/07/18 09:03:00;;;;;;;4.20;2.50;;;;;;;;;;10334572;28;20082;-76
2023/07/18 09:08:02;;;;;;;3.73;2.20;;;;;;;;;;10337698;28;20091;-75
2023/07/18 09:13:04;;;;;;;3.40;2.22;;;;;;;;;;10335922;28;20532;-76
2023/07/18 09:18:06;;;;;;;4.80;2.13;;;;;;;;;;10320201;28;20136;-74
2023/07/18 09:23:06;;;;;;;;;;;;;;;;;;10335043;28;20038;-75
2023/07/18 09:28:08;;;;;;;3.25;2.10;;;;;;;;;;10343119;28;19921;-76
2023/07/18 09:33:09;;;;;;;4.30;2.00;;;;;;;;;;10334900;28;20041;-75
2023/07/18 09:38:09;;;;;;;3.20;1.73;;;;;;;;;;10336630;28;20072;-76
2023/07/18 09:43:11;;;;;;;4.20;1.60;;;;;;;;;;10332029;28;20033;-75
2023/07/18 09:48:12;;;;;;;3.17;2.00;;;;;;;;;;10334233;28;20030;-75
2023/07/18 09:53:14;;;;;;;4.07;2.10;;;;;;;;;;10343252;28;20482;-76
2023/07/18 09:58:17;;;;;;;2.97;2.15;;;;;;;;;;10339753;28;20462;-75
2023/07/18 10:03:17;;;;;;;4.07;2.10;;;;;;;;;;10340885;28;20716;-75
2023/07/18 10:08:19;;;;;;;4.25;2.30;;;;;;;;;;10338645;28;20049;-76
2023/07/18 10:13:19;;;;;;;3.37;2.80;;;;;;;;;;10343028;28;20091;-77
2023/07/18 10:18:22;;;;;;;4.22;2.08;;;;;;;;;;10347838;28;20055;-74
2023/07/18 10:23:38;;;;;;;2.75;2.13;;;;;;;;;;10336409;28;20092;-75
2023/07/18 10:28:42;;;;;;;22.45;17.38;;;;;;;;;;10340311;28;20042;-74
2023/07/18 10:34:02;;;;;;;3.45;2.38;;;;;;;;;;10316244;28;20068;-76
2023/07/18 10:39:12;;;;;;;4.75;2.67;;;;;;;;;;10328129;28;20049;-74
2023/07/18 10:44:13;;;;;;;4.35;2.30;;;;;;;;;;10332644;28;20046;-74
2023/07/18 10:49:13;;;;;;;4.70;2.10;;;;;;;;;;10343689;28;20799;-75
2023/07/18 10:54:13;;;;;;;3.90;2.20;;;;;;;;;;10324491;28;20042;-73
2023/07/18 10:59:14;;;;;;;3.30;2.33;;;;;;;;;;10332788;28;20038;-75
2023/07/18 11:04:15;;;;;;;4.73;2.40;;;;;;;;;;10337759;28;20040;-74
2023/07/18 11:09:15;;;;;;;25.40;13.53;;;;;;;;;;10340421;28;20376;-75
2023/07/18 11:14:16;;;;;;;54.60;5.57;;;;;;;;;;10328142;28;20041;-76
2023/07/18 11:19:18;;;;;;;4.20;2.40;;;;;;;;;;10347984;28;20034;-75
2023/07/18 11:24:19;;;;;;;;;;;;;;;;;;10357255;28;20042;-74
2023/07/18 11:29:25;;;;;;;3.83;2.10;;;;;;;;;;10341418;28;19917;-75
2023/07/18 11:34:25;;;;;;;3.42;2.60;;;;;;;;;;10336116;28;20297;-74
2023/07/18 11:39:28;;;;;;;4.87;3.13;;;;;;;;;;10337548;28;20115;-74
2023/07/18 11:44:31;;;;;;;5.07;2.50;;;;;;;;;;10327898;28;20026;-75
2023/07/18 11:49:34;;;;;;;4.20;2.40;;;;;;;;;;10350678;28;20036;-74
2023/07/18 11:54:35;;;;;;;4.10;2.85;;;;;;;;;;10338440;28;20042;-74
2023/07/18 11:59:35;;;;;;;5.70;2.53;;;;;;;;;;10338306;28;20487;-75
2023/07/18 12:04:38;;;;;;;3.07;2.30;;;;;;;;;;10346278;28;20048;-74
2023/07/18 12:09:39;;;;;;;8.90;2.72;;;;;;;;;;10343768;28;20415;-75
2023/07/18 12:14:41;;;;;;;6.47;2.50;;;;;;;;;;10337738;28;20037;-74
2023/07/18 12:19:42;;;;;;;5.43;2.72;;;;;;;;;;10319190;28;20042;-74
2023/07/18 12:24:43;;;;;;;3.43;2.47;;;;;;;;;;10344634;28;20033;-74
2023/07/18 12:29:44;;;;;;;3.70;2.33;;;;;;;;;;10330173;28;20761;-74
2023/07/18 12:34:44;;;;;;;4.57;2.55;;;;;;;;;;10334779;28;20034;-74
2023/07/18 12:39:45;;;;;;;4.97;2.70;;;;;;;;;;10340172;28;20108;-73
2023/07/18 12:44:46;;;;;;;3.30;2.37;;;;;;;;;;10338222;28;21473;-72
2023/07/18 12:49:46;;;;;;;5.23;2.80;;;;;;;;;;10336449;28;20041;-72
2023/07/18 12:54:46;;;;;;;4.87;2.83;;;;;;;;;;10336811;28;20053;-72
2023/07/18 12:59:47;;;;;;;4.23;2.60;;;;;;;;;;10348222;28;21089;-74
2023/07/18 13:04:47;;;;;;;4.13;2.63;;;;;;;;;;10330077;28;20157;-74
2023/07/18 13:09:48;;;;;;;5.83;2.73;;;;;;;;;;10337622;28;20057;-75
2023/07/18 13:14:48;;;;;;;5.00;2.40;;;;;;;;;;10331656;28;20053;-75
2023/07/18 13:19:48;;;;;;;4.63;3.37;;;;;;;;;;10334514;28;20037;-71
2023/07/18 13:24:49;;;;;;;2.80;2.33;;;;;;;;;;10337941;28;20350;-75
2023/07/18 13:29:49;;;;;;;3.70;2.60;;;;;;;;;;10333472;28;20069;-73
2023/07/18 13:34:49;;;;;;;4.07;2.73;;;;;;;;;;10327774;28;20046;-72
2023/07/18 13:39:50;;;;;;;3.87;2.43;;;;;;;;;;10334094;28;20042;-71
2023/07/18 13:44:50;;;;;;;3.83;2.27;;;;;;;;;;10331030;28;20049;-69
2023/07/18 13:49:54;;;;;;;4.27;2.93;;;;;;;;;;10333614;28;20037;-69
2023/07/18 13:54:54;;;;;;;4.18;3.08;;;;;;;;;;10338296;28;20678;-69
2023/07/18 13:59:54;;;;;;;4.30;2.47;;;;;;;;;;10320158;28;20042;-71
2023/07/18 14:04:55;;;;;;;6.57;2.53;;;;;;;;;;10332509;28;20123;-71
2023/07/18 14:09:55;;;;;;;3.63;2.70;;;;;;;;;;10319749;28;20049;-71
2023/07/18 14:14:58;;;;;;;4.90;2.70;;;;;;;;;;10322700;28;20048;-71
2023/07/18 14:19:58;;;;;;;3.55;2.72;;;;;;;;;;10328665;28;20119;-72
2023/07/18 14:24:59;;;;;;;4.33;2.70;;;;;;;;;;10329580;28;20034;-72
2023/07/18 14:29:59;;;;;;;4.23;2.80;;;;;;;;;;10326764;28;20040;-73
2023/07/18 14:34:59;;;;;;;4.43;2.57;;;;;;;;;;10333379;28;20042;-71
2023/07/18 14:40:04;;;;;;;3.43;2.67;;;;;;;;;;10324578;28;20046;-72
2023/07/18 14:45:04;;;;;;;4.78;2.70;;;;;;;;;;10337671;28;20030;-71
2023/07/18 14:50:05;;;;;;;2.40;2.20;;;;;;;;;;10347915;28;20034;-70
2023/07/18 14:55:06;;;;;;;9.67;4.73;;;;;;;;;;10338623;28;21008;-70
2023/07/18 15:00:06;;;;;;;5.07;2.37;;;;;;;;;;10345987;28;20038;-70
2023/07/18 15:05:07;;;;;;;2.95;2.53;;;;;;;;;;10343341;28;20041;-72
2023/07/18 15:10:07;;;;;;;5.30;2.47;;;;;;;;;;10337294;28;20449;-75
2023/07/18 15:15:08;;;;;;;3.73;2.73;;;;;;;;;;10337255;28;20810;-70
2023/07/18 15:20:09;;;;;;;3.10;2.37;;;;;;;;;;10342491;28;21062;-74
2023/07/18 15:25:10;;;;;;;5.57;3.20;;;;;;;;;;10322015;28;20061;-75
2023/07/18 15:30:10;;;;;;;4.50;2.58;;;;;;;;;;10335556;28;20030;-75
2023/07/18 15:35:11;;;;;;;;;;;;;;;;;;10342696;28;20038;-78
2023/07/18 15:40:11;;;;;;;4.60;2.83;;;;;;;;;;10330417;28;19917;-74
2023/07/18 15:45:12;;;;;;;;;;;;;;;;;;10352251;28;20604;-72
2023/07/18 15:50:12;;;;;;;3.25;2.13;;;;;;;;;;10336821;28;19921;-75
2023/07/18 15:55:13;;;;;;;5.38;3.00;;;;;;;;;;10336467;28;20499;-76
2023/07/18 16:00:14;;;;;;;3.85;2.47;;;;;;;;;;10346328;28;20064;-73
2023/07/18 16:05:15;;;;;;;4.25;2.67;;;;;;;;;;10344880;28;20119;-75
2023/07/18 16:10:16;;;;;;;3.38;2.50;;;;;;;;;;10338848;28;20046;-75
2023/07/18 16:15:16;;;;;;;3.60;2.50;;;;;;;;;;10348069;28;20532;-75
2023/07/18 16:20:18;;;;;;;3.60;2.50;;;;;;;;;;10340009;28;20061;-74
2023/07/18 16:25:18;;;;;;;4.55;2.42;;;;;;;;;;10336273;28;20042;-75
2023/07/18 16:30:21;;;;;;;3.33;2.30;;;;;;;;;;10341522;28;20042;-75
2023/07/18 16:35:21;;;;;;;3.67;2.72;;;;;;;;;;10330008;28;20137;-72
2023/07/18 16:40:22;;;;;;;4.07;3.33;;;;;;;;;;10332459;28;20084;-72
2023/07/18 16:45:22;;;;;;;3.87;2.50;;;;;;;;;;10344153;28;20092;-71
2023/07/18 16:50:23;;;;;;;4.73;2.70;;;;;;;;;;10333329;28;20374;-72
2023/07/18 16:55:23;;;;;;;3.67;2.40;;;;;;;;;;10335944;28;20071;-73
2023/07/18 17:00:24;;;;;;;5.27;2.60;;;;;;;;;;10335501;28;20782;-71
2023/07/18 17:05:24;;;;;;;3.13;2.67;;;;;;;;;;10339752;28;20038;-72
2023/07/18 17:10:25;;;;;;;4.00;2.70;;;;;;;;;;10333029;28;20505;-73
2023/07/18 17:15:26;;;;;;;3.07;2.67;;;;;;;;;;10342440;28;20084;-72
2023/07/18 17:20:26;;;;;;;3.00;2.43;;;;;;;;;;10338303;28;20047;-73
2023/07/18 17:25:27;;;;;;;5.93;3.60;;;;;;;;;;10335511;28;20042;-75
2023/07/18 17:30:28;;;;;;;3.50;2.73;;;;;;;;;;10335073;28;20644;-76
2023/07/18 17:35:28;;;;;;;5.50;3.03;;;;;;;;;;10327607;28;20757;-74
2023/07/18 17:40:28;;;;;;;5.10;3.47;;;;;;;;;;10325423;28;20038;-74
2023/07/18 17:45:29;;;;;;;3.97;3.20;;;;;;;;;;10340383;28;20045;-74
2023/07/18 17:50:30;;;;;;;3.40;2.33;;;;;;;;;;10331905;28;20447;-77
2023/07/18 17:55:31;;;;;;;3.83;2.53;;;;;;;;;;10339822;28;20060;-74
2023/07/18 18:00:31;;;;;;;2.70;2.30;;;;;;;;;;10346525;28;20030;-75
2023/07/18 18:05:32;;;;;;;3.17;2.70;;;;;;;;;;10337006;28;20123;-74
2023/07/18 18:10:34;;;;;;;4.15;2.65;;;;;;;;;;10347455;28;20034;-74
2023/07/18 18:15:35;;;;;;;4.80;2.83;;;;;;;;;;10323130;28;20046;-74
2023/07/18 18:20:36;;;;;;;4.47;2.70;;;;;;;;;;10341370;28;20042;-74
2023/07/18 18:25:37;;;;;;;4.75;2.67;;;;;;;;;;10339032;28;20038;-76
2023/07/18 18:30:39;;;;;;;4.00;2.73;;;;;;;;;;10348352;28;20733;-75
2023/07/18 18:35:40;;;;;;;4.88;3.00;;;;;;;;;;10329038;28;20046;-75
2023/07/18 18:40:40;;;;;;;5.67;3.13;;;;;;;;;;10329594;28;20039;-74
2023/07/18 18:45:41;;;;;;;3.33;2.60;;;;;;;;;;10334354;28;20045;-71
2023/07/18 18:50:42;;;;;;;5.30;2.78;;;;;;;;;;10325057;28;20541;-73
2023/07/18 18:55:42;;;;;;;4.50;2.87;;;;;;;;;;10321497;28;20105;-74
2023/07/18 19:00:43;;;;;;;3.90;2.77;;;;;;;;;;10317577;28;20045;-74
2023/07/18 19:05:45;;;;;;;4.03;2.83;;;;;;;;;;10337655;28;20030;-73
2023/07/18 19:10:46;;;;;;;4.13;2.78;;;;;;;;;;10329738;28;20041;-72
2023/07/18 19:15:46;;;;;;;3.40;2.87;;;;;;;;;;10337390;28;20049;-72
2023/07/18 19:20:47;;;;;;;4.77;2.80;;;;;;;;;;10323899;28;21003;-72
2023/07/18 19:25:47;;;;;;;4.20;2.93;;;;;;;;;;10338180;28;20037;-74
2023/07/18 19:30:48;;;;;;;4.83;3.17;;;;;;;;;;10313988;28;21217;-73
2023/07/18 19:35:48;;;;;;;4.00;3.07;;;;;;;;;;10331188;28;20504;-74
2023/07/18 19:40:48;;;;;;;4.33;2.93;;;;;;;;;;10342629;28;20145;-75
2023/07/18 19:45:49;;;;;;;5.97;3.00;;;;;;;;;;10345017;28;20066;-73
2023/07/18 19:50:49;;;;;;;3.60;2.83;;;;;;;;;;10338760;28;20045;-73
2023/07/18 19:55:50;;;;;;;4.05;2.75;;;;;;;;;;10319253;28;20049;-71
2023/07/18 20:00:51;;;;;;;4.40;2.93;;;;;;;;;;10329158;28;20057;-73
2023/07/18 20:05:51;;;;;;;4.47;3.00;;;;;;;;;;10342651;28;20065;-71
2023/07/18 20:10:52;;;;;;;4.27;3.00;;;;;;;;;;10332079;28;20351;-75
2023/07/18 20:15:53;;;;;;;4.82;2.90;;;;;;;;;;10341998;28;20301;-76
2023/07/18 20:20:58;;;;;;;3.03;2.72;;;;;;;;;;10313929;28;20042;-73
2023/07/18 20:25:59;;;;;;;4.67;3.03;;;;;;;;;;10339060;28;20133;-74
2023/07/18 20:30:59;;;;;;;5.93;3.03;;;;;;;;;;10325512;28;20297;-74
2023/07/18 20:35:59;;;;;;;4.13;3.10;;;;;;;;;;10347262;28;20143;-73
2023/07/18 20:41:00;;;;;;;3.77;2.80;;;;;;;;;;10325416;28;20292;-73
2023/07/18 20:46:02;;;;;;;5.45;2.90;;;;;;;;;;10341105;28;20573;-73
2023/07/18 20:51:02;;;;;;;3.08;2.78;;;;;;;;;;10320361;28;20033;-72
2023/07/18 20:56:03;;;;;;;4.10;3.10;;;;;;;;;;10328935;28;20045;-75
2023/07/18 21:01:03;;;;;;;4.32;3.22;;;;;;;;;;10319255;28;20044;-74
2023/07/18 21:06:03;;;;;;;4.45;3.53;;;;;;;;;;10327870;28;20482;-74
2023/07/18 21:11:04;;;;;;;6.22;3.30;;;;;;;;;;10340570;28;20044;-73
2023/07/18 21:16:04;;;;;;;3.27;2.57;;;;;;;;;;10334708;28;20048;-73
2023/07/18 21:21:05;;;;;;;5.05;3.10;;;;;;;;;;10328230;28;20619;-73
2023/07/18 21:26:05;;;;;;;4.87;2.80;;;;;;;;;;10332001;28;20060;-74
2023/07/18 21:31:05;;;;;;;5.03;3.33;;;;;;;;;;10321135;28;20387;-73
2023/07/18 21:36:06;;;;;;;5.47;3.07;;;;;;;;;;10335472;28;20108;-74
2023/07/18 21:41:06;;;;;;;5.97;3.63;;;;;;;;;;10332506;28;20034;-74
2023/07/18 21:46:07;;;;;;;5.47;2.97;;;;;;;;;;10327169;28;20456;-74
2023/07/18 21:51:08;;;;;;;5.35;3.22;;;;;;;;;;10328304;28;20537;-76
2023/07/18 21:56:08;;;;;;;5.82;3.42;;;;;;;;;;10336820;28;20054;-75
2023/07/18 22:01:09;;;;;;;4.00;3.05;;;;;;;;;;10323666;28;20050;-73
2023/07/18 22:06:09;;;;;;;5.87;3.40;;;;;;;;;;10320902;28;20041;-73
2023/07/18 22:11:09;;;;;;;5.40;3.57;;;;;;;;;;10335700;28;20034;-72
2023/07/18 22:16:10;;;;;;;4.90;3.57;;;;;;;;;;10313070;28;20076;-73
2023/07/18 22:21:10;;;;;;;4.73;3.53;;;;;;;;;;10329072;28;20297;-73
2023/07/18 22:26:12;;;;;;;5.18;3.65;;;;;;;;;;10331027;28;20124;-73
2023/07/18 22:31:14;;;;;;;4.90;3.60;;;;;;;;;;10317743;28;20056;-75
2023/07/18 22:36:14;;;;;;;6.43;3.43;;;;;;;;;;10320445;28;20057;-76
2023/07/18 22:41:15;;;;;;;4.33;3.53;;;;;;;;;;10325661;28;20857;-74
2023/07/18 22:46:16;;;;;;;5.00;3.37;;;;;;;;;;10323905;28;20327;-72
2023/07/18 22:51:16;;;;;;;5.53;3.80;;;;;;;;;;10318810;28;20061;-75
2023/07/18 22:56:16;;;;;;;5.80;4.07;;;;;;;;;;10331646;28;20038;-74
2023/07/18 23:01:17;;;;;;;5.00;4.27;;;;;;;;;;10337853;28;20044;-73
2023/07/18 23:06:17;;;;;;;5.27;3.93;;;;;;;;;;10344817;28;20046;-74
2023/07/18 23:11:17;;;;;;;3.97;3.30;;;;;;;;;;10326571;28;20029;-73
2023/07/18 23:16:18;;;;;;;7.33;3.60;;;;;;;;;;10352347;28;20811;-72
2023/07/18 23:21:18;;;;;;;4.57;3.13;;;;;;;;;;10334488;28;20120;-73
2023/07/18 23:26:20;;;;;;;4.77;3.10;;;;;;;;;;10327778;28;20041;-72
2023/07/18 23:31:20;;;;;;;4.40;3.30;;;;;;;;;;10347177;28;20044;-72
2023/07/18 23:36:21;;;;;;;4.50;3.37;;;;;;;;;;10333707;28;20053;-72
2023/07/18 23:41:21;;;;;;;4.47;3.10;;;;;;;;;;10325154;28;20867;-74
2023/07/18 23:46:22;;;;;;;5.25;3.65;;;;;;;;;;10324775;28;20350;-72
2023/07/18 23:51:22;;;;;;;4.27;3.40;;;;;;;;;;10345136;28;20045;-75
2023/07/18 23:56:22;;;;;;;5.00;3.60;;;;;;;;;;10332017;28;20340;-74
